Attica, Indiana
Current Conditions -  °F | °C
As of 9:54 PM on Sunday 21 Dec 2014 (Local Time) from KLAF Reporting Station
Haze Haze  
Wind Chill: 21°   Ceiling: Unl
Heat Index: 28°   Visibility: 6mi
Dew Point: 25°   Wind: 7mph
Humidity: 88%   Direction: 110°ESE
Pressure: 30.09"   Gusts: NA
Location:  40.29°N, 87.25°W
Report Text: KLAF 220254Z AUTO 11006KT 6SM BR CLR M02/M04 A3009 RMK AO2 SLP197 T10221039 58009 TSNO
Loading
Personal Weather Stations






























Interactive Weather Map New forecast layout! Learn more

10-Day Weather Forecast

Advertisements
Track Severe Weather on mobile